Time,TemperatureF,DewpointF,PressureIn,WindDirection,WindDirectionDegrees,WindSpeedMPH,WindSpeedGustMPH,Humidity,HourlyPrecipIn,Conditions,Clouds,dailyrainin,SoftwareType,DateUTC
2013-03-05 00:00:00,36.9,33.4,30.04,North,32767,0.0,0.0,87,0.00,,,0.00,Wunderground v.1.13,2013-03-05 08:00:00,
2013-03-05 00:06:00,36.8,33.3,30.04,North,360,0.0,0.0,87,0.00,,,0.00,Wunderground v.1.13,2013-03-05 08:06:00,
2013-03-05 00:15:00,36.7,33.2,30.05,North,32767,0.0,0.0,87,0.00,,,0.00,Wunderground v.1.13,2013-03-05 08:15:00,
2013-03-05 00:20:00,36.7,33.2,30.05,North,32767,0.0,0.0,87,0.00,,,0.00,Wunderground v.1.13,2013-03-05 08:20:00,
2013-03-05 00:25:00,36.7,33.2,30.05,North,32767,0.0,0.0,87,0.00,,,0.00,Wunderground v.1.13,2013-03-05 08:25:00,
2013-03-05 00:35:00,36.6,33.1,30.05,North,32767,0.0,0.0,87,0.00,,,0.00,Wunderground v.1.13,2013-03-05 08:35:00,
2013-03-05 00:40:00,36.6,33.1,30.06,North,32767,0.0,0.0,87,0.00,,,0.00,Wunderground v.1.13,2013-03-05 08:40:00,
2013-03-05 00:45:00,36.5,33.0,30.06,North,32767,0.0,0.0,87,0.00,,,0.00,Wunderground v.1.13,2013-03-05 08:45:00,
2013-03-05 00:50:00,36.5,33.0,30.06,North,32767,0.0,0.0,87,0.00,,,0.00,Wunderground v.1.13,2013-03-05 08:50:00,
2013-03-05 00:55:00,36.4,32.9,30.06,North,32767,0.0,0.0,87,0.00,,,0.00,Wunderground v.1.13,2013-03-05 08:55:00,
2013-03-05 01:06:00,36.4,32.9,30.06,North,360,0.0,0.0,87,0.00,,,0.00,Wunderground v.1.13,2013-03-05 09:06:00,
2013-03-05 01:15:00,36.4,32.9,30.06,North,360,0.0,0.0,87,0.00,,,0.00,Wunderground v.1.13,2013-03-05 09:15:00,
2013-03-05 01:20:00,36.3,32.8,30.06,North,32767,0.0,0.0,87,0.00,,,0.00,Wunderground v.1.13,2013-03-05 09:20:00,
2013-03-05 01:25:00,36.3,32.8,30.06,North,32767,0.0,0.0,87,0.00,,,0.00,Wunderground v.1.13,2013-03-05 09:25:00,
2013-03-05 01:35:00,36.1,32.9,30.06,North,32767,0.0,0.0,88,0.00,,,0.00,Wunderground v.1.13,2013-03-05 09:35:00,
2013-03-05 01:40:00,36.0,32.8,30.06,North,360,0.0,0.0,88,0.00,,,0.00,Wunderground v.1.13,2013-03-05 09:40:00,
2013-03-05 01:45:00,35.9,32.7,30.06,North,32767,0.0,0.0,88,0.00,,,0.00,Wunderground v.1.13,2013-03-05 09:45:00,
2013-03-05 01:50:00,35.8,32.6,30.07,North,32767,0.0,0.0,88,0.00,,,0.00,Wunderground v.1.13,2013-03-05 09:50:00,
2013-03-05 02:00:00,35.7,32.5,30.06,North,360,0.0,0.0,88,0.00,,,0.00,Wunderground v.1.13,2013-03-05 10:00:00,
2013-03-05 02:06:00,35.6,32.4,30.06,North,32767,0.0,0.0,88,0.00,,,0.00,Wunderground v.1.13,2013-03-05 10:06:00,
2013-03-05 02:15:00,35.5,32.3,30.05,North,32767,0.0,0.0,88,0.00,,,0.00,Wunderground v.1.13,2013-03-05 10:15:00,
2013-03-05 02:20:00,35.5,32.3,30.05,North,32767,0.0,0.0,88,0.00,,,0.00,Wunderground v.1.13,2013-03-05 10:20:00,
2013-03-05 02:25:00,35.4,32.2,30.05,North,32767,0.0,0.0,88,0.00,,,0.00,Wunderground v.1.13,2013-03-05 10:25:00,
2013-03-05 02:30:00,35.4,32.2,30.05,North,360,0.0,0.0,88,0.00,,,0.00,Wunderground v.1.13,2013-03-05 10:30:00,
2013-03-05 02:40:00,35.3,32.1,30.04,North,32767,0.0,0.0,88,0.00,,,0.00,Wunderground v.1.13,2013-03-05 10:40:00,
2013-03-05 02:45:00,35.3,32.1,30.04,North,32767,0.0,0.0,88,0.00,,,0.00,Wunderground v.1.13,2013-03-05 10:45:00,
2013-03-05 02:50:00,35.3,32.1,30.04,North,32767,0.0,0.0,88,0.00,,,0.00,Wunderground v.1.13,2013-03-05 10:50:00,
2013-03-05 02:55:00,35.3,32.1,30.04,North,360,0.0,0.0,88,0.00,,,0.00,Wunderground v.1.13,2013-03-05 10:55:00,
2013-03-05 03:00:00,35.5,32.3,30.04,North,32767,0.0,0.0,88,0.00,,,0.00,Wunderground v.1.13,2013-03-05 11:00:00,
2013-03-05 03:06:00,35.5,32.3,30.04,North,32767,0.0,0.0,88,0.00,,,0.00,Wunderground v.1.13,2013-03-05 11:06:00,
2013-03-05 03:15:00,35.5,32.3,30.04,North,32767,0.0,0.0,88,0.00,,,0.00,Wunderground v.1.13,2013-03-05 11:15:00,
2013-03-05 03:20:00,35.5,32.3,30.04,North,360,0.0,0.0,88,0.00,,,0.00,Wunderground v.1.13,2013-03-05 11:20:00,
2013-03-05 03:25:00,35.6,32.4,30.05,North,360,0.0,0.0,88,0.00,,,0.00,Wunderground v.1.13,2013-03-05 11:25:00,
2013-03-05 03:30:00,36.3,33.4,30.05,North,32767,0.0,0.0,89,0.00,,,0.00,Wunderground v.1.13,2013-03-05 11:30:00,
2013-03-05 03:35:00,37.4,34.7,30.06,North,32767,0.0,0.0,90,0.00,,,0.00,Wunderground v.1.13,2013-03-05 11:35:00,
2013-03-05 03:45:00,38.3,35.6,30.05,North,360,0.0,0.0,90,0.00,,,0.00,Wunderground v.1.13,2013-03-05 11:45:00,
2013-03-05 03:50:00,38.5,35.5,30.05,North,32767,0.0,0.0,89,0.00,,,0.00,Wunderground v.1.13,2013-03-05 11:50:00,
2013-03-05 03:55:00,38.6,35.6,30.05,North,32767,0.0,0.0,89,0.00,,,0.00,Wunderground v.1.13,2013-03-05 11:55:00,
2013-03-05 04:00:00,38.7,35.7,30.05,North,32767,0.0,0.0,89,0.00,,,0.00,Wunderground v.1.13,2013-03-05 12:00:00,
2013-03-05 04:06:00,38.8,35.8,30.05,North,360,0.0,0.0,89,0.00,,,0.00,Wunderground v.1.13,2013-03-05 12:06:00,
2013-03-05 04:15:00,39.0,36.0,30.05,North,360,0.0,0.0,89,0.00,,,0.00,Wunderground v.1.13,2013-03-05 12:15:00,
2013-03-05 04:20:00,39.0,36.0,30.05,North,32767,0.0,0.0,89,0.00,,,0.00,Wunderground v.1.13,2013-03-05 12:20:00,
2013-03-05 04:25:00,39.2,36.2,30.05,North,32767,0.0,0.0,89,0.00,,,0.00,Wunderground v.1.13,2013-03-05 12:25:00,
2013-03-05 04:30:00,39.3,36.3,30.05,North,360,0.0,0.0,89,0.00,,,0.00,Wunderground v.1.13,2013-03-05 12:30:00,
2013-03-05 04:35:00,39.3,36.3,30.05,North,32767,0.0,0.0,89,0.00,,,0.00,Wunderground v.1.13,2013-03-05 12:35:00,
2013-03-05 04:40:00,39.3,36.3,30.04,North,360,0.0,0.0,89,0.00,,,0.00,Wunderground v.1.13,2013-03-05 12:40:00,
2013-03-05 04:50:00,39.3,36.3,30.04,North,32767,0.0,0.0,89,0.00,,,0.00,Wunderground v.1.13,2013-03-05 12:50:00,
2013-03-05 04:55:00,39.3,36.3,30.04,North,360,0.0,0.0,89,0.00,,,0.00,Wunderground v.1.13,2013-03-05 12:55:00,
2013-03-05 05:00:00,39.3,36.3,30.04,North,360,0.0,0.0,89,0.00,,,0.00,Wunderground v.1.13,2013-03-05 13:00:00,
2013-03-05 05:06:00,39.3,36.3,30.04,North,32767,0.0,0.0,89,0.00,,,0.00,Wunderground v.1.13,2013-03-05 13:06:00,
2013-03-05 05:15:00,39.3,36.3,30.04,North,32767,0.0,0.0,89,0.00,,,0.00,Wunderground v.1.13,2013-03-05 13:15:00,
2013-03-05 05:25:00,39.5,36.8,30.04,North,360,0.0,0.0,90,0.00,,,0.00,Wunderground v.1.13,2013-03-05 13:25:00,
2013-03-05 05:30:00,39.7,37.0,30.04,North,360,0.0,0.0,90,0.00,,,0.00,Wunderground v.1.13,2013-03-05 13:30:00,
2013-03-05 05:35:00,39.8,37.1,30.04,North,32767,0.0,0.0,90,0.00,,,0.00,Wunderground v.1.13,2013-03-05 13:35:00,
2013-03-05 05:40:00,40.0,37.3,30.04,North,32767,0.0,0.0,90,0.00,,,0.00,Wunderground v.1.13,2013-03-05 13:40:00,
2013-03-05 05:50:00,40.2,37.5,30.04,North,360,0.0,0.0,90,0.00,,,0.00,Wunderground v.1.13,2013-03-05 13:50:00,
2013-03-05 05:55:00,40.3,37.6,30.04,North,32767,0.0,0.0,90,0.00,,,0.00,Wunderground v.1.13,2013-03-05 13:55:00,
2013-03-05 06:00:00,40.4,37.7,30.04,North,32767,0.0,0.0,90,0.00,,,0.00,Wunderground v.1.13,2013-03-05 14:00:00,
2013-03-05 06:06:00,40.5,37.8,30.04,North,360,0.0,0.0,90,0.00,,,0.00,Wunderground v.1.13,2013-03-05 14:06:00,
2013-03-05 06:15:00,40.7,38.0,30.05,North,360,0.0,0.0,90,0.00,,,0.00,Wunderground v.1.13,2013-03-05 14:15:00,
2013-03-05 06:25:00,40.8,38.1,30.04,North,32767,0.0,0.0,90,0.00,,,0.00,Wunderground v.1.13,2013-03-05 14:25:00,
2013-03-05 06:30:00,40.9,38.2,30.04,North,360,0.0,0.0,90,0.00,,,0.00,Wunderground v.1.13,2013-03-05 14:30:00,
2013-03-05 06:35:00,41.0,38.3,30.04,North,32767,0.0,0.0,90,0.00,,,0.00,Wunderground v.1.13,2013-03-05 14:35:00,
2013-03-05 06:40:00,41.1,38.4,30.04,North,32767,0.0,0.0,90,0.00,,,0.00,Wunderground v.1.13,2013-03-05 14:40:00,
2013-03-05 06:50:00,41.1,38.4,30.04,North,32767,0.0,0.0,90,0.00,,,0.00,Wunderground v.1.13,2013-03-05 14:50:00,
2013-03-05 06:55:00,41.1,38.4,30.04,North,32767,0.0,0.0,90,0.00,,,0.00,Wunderground v.1.13,2013-03-05 14:55:00,
2013-03-05 07:00:00,41.1,38.4,30.04,North,360,0.0,0.0,90,0.00,,,0.00,Wunderground v.1.13,2013-03-05 15:00:00,
2013-03-05 07:06:00,41.1,38.4,30.04,North,32767,0.0,0.0,90,0.00,,,0.00,Wunderground v.1.13,2013-03-05 15:06:00,
2013-03-05 07:15:00,41.4,38.7,30.04,North,360,0.0,0.0,90,0.00,,,0.00,Wunderground v.1.13,2013-03-05 15:15:00,
2013-03-05 07:25:00,41.5,38.8,30.04,North,32767,0.0,0.0,90,0.00,,,0.00,Wunderground v.1.13,2013-03-05 15:25:00,
2013-03-05 07:30:00,41.5,38.8,30.04,North,32767,0.0,0.0,90,0.00,,,0.00,Wunderground v.1.13,2013-03-05 15:30:00,
2013-03-05 07:35:00,41.6,38.9,30.04,North,32767,0.0,0.0,90,0.00,,,0.00,Wunderground v.1.13,2013-03-05 15:35:00,
2013-03-05 07:40:00,41.7,39.0,30.04,North,360,0.0,0.0,90,0.00,,,0.00,Wunderground v.1.13,2013-03-05 15:40:00,
2013-03-05 07:45:00,41.8,39.1,30.04,North,32767,0.0,0.0,90,0.00,,,0.00,Wunderground v.1.13,2013-03-05 15:45:00,
2013-03-05 07:55:00,42.4,39.7,30.05,North,32767,0.0,0.0,90,0.00,,,0.00,Wunderground v.1.13,2013-03-05 15:55:00,
2013-03-05 08:00:00,42.6,39.9,30.05,North,32767,0.0,0.0,90,0.00,,,0.00,Wunderground v.1.13,2013-03-05 16:00:00,
2013-03-05 08:06:00,42.9,40.2,30.05,North,32767,0.0,0.0,90,0.00,,,0.00,Wunderground v.1.13,2013-03-05 16:06:00,
2013-03-05 08:15:00,43.1,40.1,30.05,North,32767,0.0,0.0,89,0.00,,,0.00,Wunderground v.1.13,2013-03-05 16:15:00,
2013-03-05 08:20:00,43.3,40.3,30.04,North,32767,0.0,0.0,89,0.00,,,0.00,Wunderground v.1.13,2013-03-05 16:20:00,
2013-03-05 08:30:00,44.0,40.7,30.05,North,360,0.0,0.0,88,0.00,,,0.00,Wunderground v.1.13,2013-03-05 16:30:00,
2013-03-05 08:35:00,44.2,40.9,30.04,North,32767,0.0,0.0,88,0.00,,,0.00,Wunderground v.1.13,2013-03-05 16:35:00,
2013-03-05 08:40:00,44.2,40.6,30.05,North,32767,0.0,0.0,87,0.00,,,0.00,Wunderground v.1.13,2013-03-05 16:40:00,
2013-03-05 08:45:00,44.3,40.4,30.04,North,360,0.0,0.0,86,0.00,,,0.00,Wunderground v.1.13,2013-03-05 16:45:00,
2013-03-05 08:55:00,44.7,40.5,30.04,North,360,0.0,0.0,85,0.00,,,0.00,Wunderground v.1.13,2013-03-05 16:55:00,
2013-03-05 09:00:00,44.8,40.3,30.04,North,360,0.0,0.0,84,0.00,,,0.00,Wunderground v.1.13,2013-03-05 17:00:00,
2013-03-05 09:06:00,45.0,40.5,30.04,North,32767,0.0,0.0,84,0.00,,,0.00,Wunderground v.1.13,2013-03-05 17:06:00,
2013-03-05 09:15:00,45.3,40.4,30.04,North,360,0.0,0.0,83,0.00,,,0.00,Wunderground v.1.13,2013-03-05 17:15:00,
2013-03-05 09:20:00,45.5,40.3,30.04,North,360,0.0,0.0,82,0.00,,,0.00,Wunderground v.1.13,2013-03-05 17:20:00,
2013-03-05 09:30:00,45.9,40.1,30.04,North,32767,0.0,0.0,80,0.00,,,0.00,Wunderground v.1.13,2013-03-05 17:30:00,
2013-03-05 09:35:00,46.1,40.3,30.04,North,360,0.0,0.0,80,0.00,,,0.00,Wunderground v.1.13,2013-03-05 17:35:00,
2013-03-05 09:40:00,46.3,40.5,30.04,North,32767,0.0,0.0,80,0.00,,,0.00,Wunderground v.1.13,2013-03-05 17:40:00,
2013-03-05 09:45:00,46.4,40.2,30.04,North,360,0.0,0.0,79,0.00,,,0.00,Wunderground v.1.13,2013-03-05 17:45:00,
2013-03-05 09:55:00,46.9,40.4,30.03,North,32767,0.0,0.0,78,0.00,,,0.00,Wunderground v.1.13,2013-03-05 17:55:00,
2013-03-05 10:00:00,47.2,40.4,30.03,North,32767,0.0,0.0,77,0.00,,,0.00,Wunderground v.1.13,2013-03-05 18:00:00,
2013-03-05 10:06:00,47.5,40.3,30.03,North,360,0.0,0.0,76,0.00,,,0.00,Wunderground v.1.13,2013-03-05 18:06:00,
2013-03-05 10:15:00,47.9,40.4,30.03,North,32767,0.0,0.0,75,0.00,,,0.00,Wunderground v.1.13,2013-03-05 18:15:00,
2013-03-05 10:20:00,48.1,40.2,30.04,North,32767,0.0,0.0,74,0.00,,,0.00,Wunderground v.1.13,2013-03-05 18:20:00,
2013-03-05 10:25:00,48.1,40.2,30.04,North,32767,0.0,0.0,74,0.00,,,0.00,Wunderground v.1.13,2013-03-05 18:25:00,
2013-03-05 10:35:00,48.2,40.3,30.03,North,360,0.0,0.0,74,0.00,,,0.00,Wunderground v.1.13,2013-03-05 18:35:00,
2013-03-05 10:40:00,48.3,40.0,30.03,North,32767,0.0,0.0,73,0.00,,,0.00,Wunderground v.1.13,2013-03-05 18:40:00,
2013-03-05 10:45:00,48.3,40.4,30.03,North,360,0.0,0.0,74,0.00,,,0.00,Wunderground v.1.13,2013-03-05 18:45:00,
2013-03-05 10:50:00,48.1,40.2,30.03,North,32767,0.0,0.0,74,0.00,,,0.00,Wunderground v.1.13,2013-03-05 18:50:00,
2013-03-05 10:55:00,48.1,40.5,30.03,North,32767,0.0,0.0,75,0.00,,,0.00,Wunderground v.1.13,2013-03-05 18:55:00,
2013-03-05 11:06:00,48.1,40.5,30.02,North,32767,0.0,0.0,75,0.00,,,0.00,Wunderground v.1.13,2013-03-05 19:06:00,
2013-03-05 11:15:00,48.5,41.3,30.02,North,32767,0.0,0.0,76,0.00,,,0.00,Wunderground v.1.13,2013-03-05 19:15:00,
2013-03-05 11:20:00,48.7,41.1,30.02,North,360,0.0,0.0,75,0.00,,,0.00,Wunderground v.1.13,2013-03-05 19:20:00,
2013-03-05 11:25:00,48.7,41.1,30.02,North,32767,0.0,0.0,75,0.00,,,0.00,Wunderground v.1.13,2013-03-05 19:25:00,
2013-03-05 11:30:00,48.9,41.3,30.02,North,360,0.0,0.0,75,0.00,,,0.00,Wunderground v.1.13,2013-03-05 19:30:00,
2013-03-05 11:40:00,49.4,41.5,30.02,North,32767,0.0,0.0,74,0.00,,,0.00,Wunderground v.1.13,2013-03-05 19:40:00,
2013-03-05 11:45:00,49.5,41.2,30.02,North,360,0.0,0.0,73,0.00,,,0.00,Wunderground v.1.13,2013-03-05 19:45:00,
2013-03-05 11:50:00,49.6,41.3,30.01,North,360,0.0,0.0,73,0.00,,,0.00,Wunderground v.1.13,2013-03-05 19:50:00,
2013-03-05 11:55:00,49.7,41.7,30.01,North,32767,0.0,0.0,74,0.00,,,0.00,Wunderground v.1.13,2013-03-05 19:55:00,
2013-03-05 12:00:00,49.8,41.5,30.02,North,360,0.0,0.0,73,0.00,,,0.00,Wunderground v.1.13,2013-03-05 20:00:00,
2013-03-05 12:06:00,49.7,41.4,30.01,North,32767,0.0,0.0,73,0.00,,,0.00,Wunderground v.1.13,2013-03-05 20:06:00,
2013-03-05 12:15:00,49.5,41.6,30.01,North,32767,0.0,0.0,74,0.00,,,0.00,Wunderground v.1.13,2013-03-05 20:15:00,
2013-03-05 12:20:00,49.5,41.6,30.00,North,360,0.0,0.0,74,0.00,,,0.00,Wunderground v.1.13,2013-03-05 20:20:00,
2013-03-05 12:25:00,49.5,41.6,30.00,North,32767,0.0,0.0,74,0.00,,,0.00,Wunderground v.1.13,2013-03-05 20:25:00,
2013-03-05 12:30:00,49.4,41.5,30.00,North,32767,0.0,0.0,74,0.00,,,0.00,Wunderground v.1.13,2013-03-05 20:30:00,
2013-03-05 12:40:00,49.5,41.6,30.00,North,32767,0.0,0.0,74,0.00,,,0.00,Wunderground v.1.13,2013-03-05 20:40:00,
2013-03-05 12:45:00,49.7,41.7,29.99,North,32767,0.0,0.0,74,0.00,,,0.00,Wunderground v.1.13,2013-03-05 20:45:00,
2013-03-05 12:50:00,49.8,41.8,29.99,North,32767,0.0,0.0,74,0.00,,,0.00,Wunderground v.1.13,2013-03-05 20:50:00,
2013-03-05 12:55:00,49.8,41.8,29.98,North,32767,0.0,0.0,74,0.00,,,0.00,Wunderground v.1.13,2013-03-05 20:55:00,
2013-03-05 13:00:00,50.0,41.7,29.98,North,360,0.0,0.0,73,0.00,,,0.00,Wunderground v.1.13,2013-03-05 21:00:00,
2013-03-05 13:06:00,50.3,42.3,29.98,North,32767,0.0,0.0,74,0.00,,,0.00,Wunderground v.1.13,2013-03-05 21:06:00,
2013-03-05 13:15:00,51.0,41.9,29.97,North,360,0.0,0.0,71,0.00,,,0.00,Wunderground v.1.13,2013-03-05 21:15:00,
2013-03-05 13:20:00,51.0,41.9,29.97,North,32767,0.0,0.0,71,0.00,,,0.00,Wunderground v.1.13,2013-03-05 21:20:00,
2013-03-05 13:25:00,51.0,41.9,29.97,North,32767,0.0,0.0,71,0.00,,,0.00,Wunderground v.1.13,2013-03-05 21:25:00,
2013-03-05 13:30:00,50.9,41.8,29.96,North,360,0.0,0.0,71,0.00,,,0.00,Wunderground v.1.13,2013-03-05 21:30:00,
2013-03-05 13:35:00,50.8,41.7,29.96,North,360,0.0,0.0,71,0.00,,,0.00,Wunderground v.1.13,2013-03-05 21:35:00,
2013-03-05 13:45:00,50.6,41.9,29.96,North,360,0.0,0.0,72,0.00,,,0.00,Wunderground v.1.13,2013-03-05 21:45:00,
2013-03-05 13:50:00,50.6,41.9,29.95,North,32767,0.0,0.0,72,0.00,,,0.00,Wunderground v.1.13,2013-03-05 21:50:00,
2013-03-05 13:55:00,50.7,42.0,29.95,North,360,0.0,0.0,72,0.00,,,0.00,Wunderground v.1.13,2013-03-05 21:55:00,
2013-03-05 14:00:00,50.8,42.1,29.95,North,32767,0.0,0.0,72,0.00,,,0.00,Wunderground v.1.13,2013-03-05 22:00:00,
2013-03-05 14:06:00,51.1,42.0,29.95,North,32767,0.0,0.0,71,0.00,,,0.00,Wunderground v.1.13,2013-03-05 22:06:00,
2013-03-05 14:15:00,51.1,41.7,29.95,North,32767,0.0,0.0,70,0.00,,,0.00,Wunderground v.1.13,2013-03-05 22:15:00,
2013-03-05 14:20:00,51.1,42.0,29.94,North,32767,0.0,0.0,71,0.00,,,0.00,Wunderground v.1.13,2013-03-05 22:20:00,
2013-03-05 14:25:00,51.3,42.2,29.94,North,32767,0.0,0.0,71,0.00,,,0.00,Wunderground v.1.13,2013-03-05 22:25:00,
2013-03-05 14:30:00,51.3,41.8,29.94,North,32767,0.0,0.0,70,0.00,,,0.00,Wunderground v.1.13,2013-03-05 22:30:00,
2013-03-05 14:35:00,51.3,42.2,29.94,North,32767,0.0,0.0,71,0.00,,,0.00,Wunderground v.1.13,2013-03-05 22:35:00,
2013-03-05 14:40:00,51.4,42.3,29.94,North,32767,0.0,0.0,71,0.00,,,0.00,Wunderground v.1.13,2013-03-05 22:40:00,
2013-03-05 14:50:00,51.6,42.1,29.93,North,32767,0.0,0.0,70,0.00,,,0.00,Wunderground v.1.13,2013-03-05 22:50:00,
2013-03-05 14:55:00,51.7,42.2,29.93,North,32767,0.0,0.0,70,0.00,,,0.00,Wunderground v.1.13,2013-03-05 22:55:00,
2013-03-05 15:00:00,51.8,42.3,29.93,North,360,0.0,0.0,70,0.00,,,0.00,Wunderground v.1.13,2013-03-05 23:00:00,
2013-03-05 15:06:00,52.0,42.1,29.93,North,360,0.0,0.0,69,0.00,,,0.00,Wunderground v.1.13,2013-03-05 23:06:00,
2013-03-05 15:15:00,52.3,42.4,29.93,North,360,0.0,0.0,69,0.00,,,0.00,Wunderground v.1.13,2013-03-05 23:15:00,
2013-03-05 15:25:00,52.5,42.6,29.92,North,32767,0.0,0.0,69,0.00,,,0.00,Wunderground v.1.13,2013-03-05 23:25:00,
2013-03-05 15:30:00,52.7,42.8,29.92,North,360,0.0,0.0,69,0.00,,,0.00,Wunderground v.1.13,2013-03-05 23:30:00,
2013-03-05 15:35:00,52.7,42.8,29.92,North,32767,0.0,0.0,69,0.00,,,0.00,Wunderground v.1.13,2013-03-05 23:35:00,
2013-03-05 15:45:00,52.5,42.6,29.91,North,360,0.0,0.0,69,0.00,,,0.00,Wunderground v.1.13,2013-03-05 23:45:00,
2013-03-05 15:50:00,52.3,42.8,29.91,North,360,0.0,0.0,70,0.00,,,0.00,Wunderground v.1.13,2013-03-05 23:50:00,
2013-03-05 15:55:00,52.1,42.6,29.91,North,32767,0.0,0.0,70,0.00,,,0.00,Wunderground v.1.13,2013-03-05 23:55:00,
2013-03-05 16:00:00,52.1,42.6,29.90,North,360,0.0,0.0,70,0.00,,,0.00,Wunderground v.1.13,2013-03-06 00:00:00,
2013-03-05 16:06:00,52.1,42.6,29.89,North,32767,0.0,0.0,70,0.00,,,0.00,Wunderground v.1.13,2013-03-06 00:06:00,
2013-03-05 16:15:00,52.1,42.6,29.89,North,32767,0.0,0.0,70,0.00,,,0.00,Wunderground v.1.13,2013-03-06 00:15:00,
2013-03-05 16:20:00,52.1,42.6,29.89,North,32767,0.0,0.0,70,0.00,,,0.00,Wunderground v.1.13,2013-03-06 00:20:00,
2013-03-05 16:30:00,52.0,42.5,29.88,North,360,0.0,0.0,70,0.00,,,0.00,Wunderground v.1.13,2013-03-06 00:30:00,
2013-03-05 16:35:00,52.0,42.9,29.88,North,32767,0.0,0.0,71,0.00,,,0.00,Wunderground v.1.13,2013-03-06 00:35:00,
2013-03-05 16:40:00,51.9,42.4,29.88,North,32767,0.0,0.0,70,0.00,,,0.00,Wunderground v.1.13,2013-03-06 00:40:00,
2013-03-05 16:45:00,51.8,42.7,29.88,North,32767,0.0,0.0,71,0.00,,,0.00,Wunderground v.1.13,2013-03-06 00:45:00,
2013-03-05 16:55:00,51.6,42.5,29.88,North,360,0.0,0.0,71,0.00,,,0.00,Wunderground v.1.13,2013-03-06 00:55:00,
2013-03-05 17:00:00,51.5,42.4,29.87,North,360,0.0,0.0,71,0.00,,,0.00,Wunderground v.1.13,2013-03-06 01:00:00,
2013-03-05 17:06:00,51.4,42.3,29.87,North,32767,0.0,0.0,71,0.00,,,0.00,Wunderground v.1.13,2013-03-06 01:06:00,
2013-03-05 17:15:00,51.3,42.2,29.86,North,32767,0.0,0.0,71,0.00,,,0.00,Wunderground v.1.13,2013-03-06 01:15:00,
2013-03-05 17:20:00,51.2,42.1,29.87,North,360,0.0,0.0,71,0.00,,,0.00,Wunderground v.1.13,2013-03-06 01:20:00,
2013-03-05 17:30:00,51.0,42.3,29.86,North,360,0.0,0.0,72,0.00,,,0.00,Wunderground v.1.13,2013-03-06 01:30:00,
2013-03-05 17:35:00,50.8,42.1,29.87,North,32767,0.0,0.0,72,0.00,,,0.00,Wunderground v.1.13,2013-03-06 01:35:00,
2013-03-05 17:40:00,50.7,42.0,29.86,North,32767,0.0,0.0,72,0.00,,,0.00,Wunderground v.1.13,2013-03-06 01:40:00,
2013-03-05 17:45:00,50.6,41.9,29.86,North,360,0.0,0.0,72,0.00,,,0.00,Wunderground v.1.13,2013-03-06 01:45:00,
2013-03-05 17:50:00,50.6,41.9,29.86,North,32767,0.0,0.0,72,0.00,,,0.00,Wunderground v.1.13,2013-03-06 01:50:00,
2013-03-05 18:00:00,50.7,42.0,29.86,North,360,0.0,0.0,72,0.00,,,0.00,Wunderground v.1.13,2013-03-06 02:00:00,
2013-03-05 18:06:00,50.7,42.0,29.85,North,32767,0.0,0.0,72,0.00,,,0.00,Wunderground v.1.13,2013-03-06 02:06:00,
2013-03-05 18:15:00,50.6,41.9,29.85,North,360,0.0,0.0,72,0.00,,,0.00,Wunderground v.1.13,2013-03-06 02:15:00,
2013-03-05 18:20:00,50.5,41.8,29.85,North,32767,0.0,0.0,72,0.00,,,0.00,Wunderground v.1.13,2013-03-06 02:20:00,
2013-03-05 18:25:00,50.5,41.8,29.85,North,32767,0.0,0.0,72,0.00,,,0.00,Wunderground v.1.13,2013-03-06 02:25:00,
2013-03-05 18:35:00,50.4,41.7,29.85,North,360,0.0,0.0,72,0.00,,,0.00,Wunderground v.1.13,2013-03-06 02:35:00,
2013-03-05 18:40:00,50.4,41.7,29.85,North,32767,0.0,0.0,72,0.00,,,0.00,Wunderground v.1.13,2013-03-06 02:40:00,
2013-03-05 18:45:00,50.4,41.7,29.85,North,360,0.0,0.0,72,0.00,,,0.00,Wunderground v.1.13,2013-03-06 02:45:00,
2013-03-05 18:50:00,50.4,41.7,29.84,North,32767,0.0,0.0,72,0.00,,,0.00,Wunderground v.1.13,2013-03-06 02:50:00,
2013-03-05 18:55:00,50.4,41.7,29.84,North,360,0.0,0.0,72,0.00,,,0.00,Wunderground v.1.13,2013-03-06 02:55:00,
2013-03-05 19:06:00,50.4,41.7,29.84,North,32767,0.0,0.0,72,0.00,,,0.00,Wunderground v.1.13,2013-03-06 03:06:00,
2013-03-05 19:15:00,50.4,42.1,29.84,North,32767,0.0,0.0,73,0.00,,,0.00,Wunderground v.1.13,2013-03-06 03:15:00,
2013-03-05 19:20:00,50.2,42.6,29.84,North,360,0.0,0.0,75,0.00,,,0.00,Wunderground v.1.13,2013-03-06 03:20:00,
2013-03-05 19:25:00,49.8,42.5,29.83,North,32767,0.0,0.0,76,0.00,,,0.01,Wunderground v.1.13,2013-03-06 03:25:00,
2013-03-05 19:30:00,49.5,42.6,29.83,North,360,0.0,0.0,77,0.00,,,0.01,Wunderground v.1.13,2013-03-06 03:30:00,
2013-03-05 19:40:00,49.1,42.5,29.82,North,32767,0.0,0.0,78,0.00,,,0.01,Wunderground v.1.13,2013-03-06 03:40:00,
2013-03-05 19:45:00,49.1,42.5,29.82,North,360,0.0,0.0,78,0.00,,,0.01,Wunderground v.1.13,2013-03-06 03:45:00,
2013-03-05 19:50:00,49.1,42.5,29.81,North,32767,0.0,0.0,78,0.00,,,0.01,Wunderground v.1.13,2013-03-06 03:50:00,
2013-03-05 19:55:00,49.2,42.6,29.81,North,32767,0.0,0.0,78,0.00,,,0.01,Wunderground v.1.13,2013-03-06 03:55:00,
2013-03-05 20:00:00,49.2,42.6,29.81,North,360,0.0,0.0,78,0.00,,,0.01,Wunderground v.1.13,2013-03-06 04:00:00,
2013-03-05 20:06:00,49.2,43.0,29.81,North,32767,0.0,0.0,79,0.00,,,0.01,Wunderground v.1.13,2013-03-06 04:06:00,
2013-03-05 20:15:00,49.0,42.8,29.81,North,32767,0.0,0.0,79,0.00,,,0.01,Wunderground v.1.13,2013-03-06 04:15:00,
2013-03-05 20:20:00,48.9,43.3,29.82,North,360,0.0,0.0,81,0.00,,,0.01,Wunderground v.1.13,2013-03-06 04:20:00,
2013-03-05 20:25:00,48.6,43.4,29.82,North,360,0.0,0.0,82,0.00,,,0.01,Wunderground v.1.13,2013-03-06 04:25:00,
2013-03-05 20:35:00,48.2,43.3,29.82,North,32767,0.0,0.0,83,0.36,,,0.05,Wunderground v.1.13,2013-03-06 04:35:00,
2013-03-05 20:40:00,48.0,43.4,29.81,North,32767,0.0,0.0,84,0.19,,,0.06,Wunderground v.1.13,2013-03-06 04:40:00,
2013-03-05 20:50:00,47.7,43.4,29.81,North,32767,0.0,0.0,85,0.09,,,0.08,Wunderground v.1.13,2013-03-06 04:50:00,
2013-03-05 20:55:00,47.6,43.6,29.81,North,360,0.0,0.0,86,0.13,,,0.09,Wunderground v.1.13,2013-03-06 04:55:00,
2013-03-05 21:00:00,47.5,43.5,29.81,North,32767,0.0,0.0,86,0.08,,,0.10,Wunderground v.1.13,2013-03-06 05:00:00,
2013-03-05 21:06:00,47.4,43.4,29.81,North,360,0.0,0.0,86,0.08,,,0.10,Wunderground v.1.13,2013-03-06 05:06:00,
2013-03-05 21:15:00,47.4,43.7,29.80,North,360,0.0,0.0,87,0.12,,,0.12,Wunderground v.1.13,2013-03-06 05:15:00,
2013-03-05 21:20:00,47.4,43.7,29.80,North,32767,0.0,0.0,87,0.10,,,0.13,Wunderground v.1.13,2013-03-06 05:20:00,
2013-03-05 21:25:00,47.4,44.0,29.80,North,360,0.0,0.0,88,0.08,,,0.13,Wunderground v.1.13,2013-03-06 05:25:00,
2013-03-05 21:30:00,47.4,44.0,29.80,North,32767,0.0,0.0,88,0.07,,,0.14,Wunderground v.1.13,2013-03-06 05:30:00,
2013-03-05 21:35:00,47.4,44.0,29.80,North,32767,0.0,0.0,88,0.13,,,0.15,Wunderground v.1.13,2013-03-06 05:35:00,
2013-03-05 21:40:00,47.3,43.9,29.79,North,360,0.0,0.0,88,0.08,,,0.16,Wunderground v.1.13,2013-03-06 05:40:00,
2013-03-05 21:50:00,47.3,43.9,29.79,North,32767,0.0,0.0,88,0.08,,,0.17,Wunderground v.1.13,2013-03-06 05:50:00,
2013-03-05 21:55:00,47.4,44.0,29.79,North,32767,0.0,0.0,88,0.06,,,0.17,Wunderground v.1.13,2013-03-06 05:55:00,
2013-03-05 22:00:00,47.4,44.0,29.79,North,32767,0.0,0.0,88,0.04,,,0.17,Wunderground v.1.13,2013-03-06 06:00:00,
2013-03-05 22:06:00,47.4,44.0,29.79,North,32767,0.0,0.0,88,0.00,,,0.17,Wunderground v.1.13,2013-03-06 06:06:00,
2013-03-05 22:15:00,47.5,44.1,29.79,North,32767,0.0,0.0,88,0.00,,,0.17,Wunderground v.1.13,2013-03-06 06:15:00,
2013-03-05 22:20:00,47.5,44.4,29.78,North,360,0.0,0.0,89,0.00,,,0.17,Wunderground v.1.13,2013-03-06 06:20:00,
2013-03-05 22:25:00,47.5,44.4,29.79,North,32767,0.0,0.0,89,0.00,,,0.17,Wunderground v.1.13,2013-03-06 06:25:00,
2013-03-05 22:30:00,47.5,44.4,29.79,North,32767,0.0,0.0,89,0.00,,,0.17,Wunderground v.1.13,2013-03-06 06:30:00,
2013-03-05 22:35:00,47.6,44.5,29.78,North,32767,0.0,0.0,89,0.00,,,0.17,Wunderground v.1.13,2013-03-06 06:35:00,
2013-03-05 22:45:00,47.6,44.5,29.78,North,360,0.0,0.0,89,0.00,,,0.18,Wunderground v.1.13,2013-03-06 06:45:00,
2013-03-05 22:50:00,47.6,44.5,29.78,North,32767,0.0,0.0,89,0.08,,,0.19,Wunderground v.1.13,2013-03-06 06:50:00,
2013-03-05 22:55:00,47.6,44.5,29.79,North,32767,0.0,0.0,89,0.13,,,0.20,Wunderground v.1.13,2013-03-06 06:55:00,
2013-03-05 23:00:00,47.7,44.6,29.78,North,32767,0.0,0.0,89,0.09,,,0.20,Wunderground v.1.13,2013-03-06 07:00:00,
2013-03-05 23:06:00,47.6,44.5,29.79,North,360,0.0,0.0,89,0.05,,,0.20,Wunderground v.1.13,2013-03-06 07:06:00,
2013-03-05 23:15:00,47.7,44.6,29.78,North,32767,0.0,0.0,89,0.00,,,0.21,Wunderground v.1.13,2013-03-06 07:15:00,
2013-03-05 23:25:00,47.7,44.6,29.79,North,32767,0.0,0.0,89,0.00,,,0.21,Wunderground v.1.13,2013-03-06 07:25:00,
2013-03-05 23:30:00,47.7,44.6,29.78,North,32767,0.0,0.0,89,0.00,,,0.21,Wunderground v.1.13,2013-03-06 07:30:00,
2013-03-05 23:35:00,47.7,44.6,29.79,North,360,0.0,0.0,89,0.00,,,0.22,Wunderground v.1.13,2013-03-06 07:35:00,
2013-03-05 23:45:00,47.8,44.7,29.78,North,32767,0.0,0.0,89,0.00,,,0.22,Wunderground v.1.13,2013-03-06 07:45:00,
2013-03-05 23:50:00,47.9,44.8,29.79,North,32767,0.0,0.0,89,0.04,,,0.23,Wunderground v.1.13,2013-03-06 07:50:00,
2013-03-05 23:55:00,47.9,44.8,29.79,North,32767,0.0,0.0,89,0.09,,,0.24,Wunderground v.1.13,2013-03-06 07:55:00,